メインページ
METAR-TAF:

METAR-TAF

空港 :

ペンバ, モザンビーク

緯度: 12-59S, 経度: 040-32E, 海抜: 101m

現時点の気象観測

当レポートは1時間56分前の02:00(UTC)に作成
南西の風 7kt
気温 23°C
湿度 94%
気圧 1016 hPa
視程10km以上
高度2000ftの雲はほとんどない

METAR: FQPB 250200Z 23007KT 9999 FEW020 23/22 Q1016

時間: 05:56 (03:56 UTC)

予報

当レポートは11時間56分前の16:00(UTC)に作成
予報は24日の 18時(UTC)から 25日の 18時(UTC)まで有効
変向風 2kt
視程10km以上
高度2000ftの雲はほとんどない
25日の 01時(UTC)から 25日の 03時(UTC)まで徐々に
南西の風 6kt
25日の 06時(UTC)から 25日の 08時(UTC)まで徐々に
南/南東の風 15kt

TAF: FQPB 241600Z 2418/2518 VRB02KT 9999 FEW020 TX30/2513Z TN21/2503Z BECMG 2501/2503 23006KT BECMG 2506/2508 16015KT

4,000以上の空港の気象観測と天気予報(METAR報とTAF報)

利用可能な観測所は地図上に黄色い丸と赤い丸で示す。

丸の上にカーソルを重ねると観測所名を参照できる。

次にクリックすると気象観測と天気予報を参照できる。

マップの切り替え:黒色「×」印の緑ボタンをクリックして拡大、「-」印の緑ボタンをクリックして縮小、緑色の三角印をクリックして隣りの地図に切り替え


METAR-TAF: